Time;durP1;ratioP1;P1;durP2;ratioP2;P2;SDS_P1;SDS_P2;PMS_P1;PMS_P2;Temp;Humidity;BMP_temperature;BMP_pressure;BME280_temperature;BME280_humidity;BME280_pressure;Samples;Min_cycle;Max_cycle;Signal;HPM_P1;HPM_P2
2023/06/21 00:01:38;;;;;;;11.23;7.47;;;;;;;;;;5074944;28;20364;-79
2023/06/21 00:04:04;;;;;;;11.55;7.20;;;;;;;;;;5076938;28;20032;-79
2023/06/21 00:06:29;;;;;;;9.70;6.88;;;;;;;;;;5082157;28;20036;-79
2023/06/21 00:08:56;;;;;;;9.45;6.90;;;;;;;;;;5083055;28;20020;-78
2023/06/21 00:11:21;;;;;;;10.10;6.90;;;;;;;;;;5074652;28;20043;-78
2023/06/21 00:13:46;;;;;;;9.43;6.75;;;;;;;;;;5058694;28;20063;-78
2023/06/21 00:16:14;;;;;;;12.82;6.63;;;;;;;;;;5060805;28;20498;-79
2023/06/21 00:18:39;;;;;;;9.45;6.20;;;;;;;;;;5060102;28;20025;-79
2023/06/21 00:21:04;;;;;;;12.23;5.82;;;;;;;;;;5059870;28;20025;-79
2023/06/21 00:23:30;;;;;;;12.23;5.65;;;;;;;;;;5080036;28;20031;-78
2023/06/21 00:25:55;;;;;;;9.45;5.50;;;;;;;;;;5079726;28;20035;-78
2023/06/21 00:28:21;;;;;;;7.43;5.07;;;;;;;;;;5062514;28;20059;-78
2023/06/21 00:30:46;;;;;;;8.32;5.35;;;;;;;;;;5059561;28;20032;-78
2023/06/21 00:33:11;;;;;;;11.07;5.63;;;;;;;;;;5070708;28;20020;-78
2023/06/21 00:35:36;;;;;;;9.48;4.93;;;;;;;;;;5064922;28;20038;-78
2023/06/21 00:38:02;;;;;;;10.05;5.32;;;;;;;;;;5057710;28;20044;-78
2023/06/21 00:40:27;;;;;;;10.18;5.65;;;;;;;;;;5058224;28;20614;-80
2023/06/21 00:42:54;;;;;;;8.30;5.18;;;;;;;;;;5071906;28;20036;-77
2023/06/21 00:45:20;;;;;;;8.88;5.30;;;;;;;;;;5076604;28;20050;-77
2023/06/21 00:47:45;;;;;;;7.40;5.15;;;;;;;;;;5078063;28;20446;-78
2023/06/21 00:50:12;;;;;;;9.68;5.47;;;;;;;;;;5079629;28;20036;-79
2023/06/21 00:52:39;;;;;;;10.00;5.45;;;;;;;;;;5064062;28;20029;-78
2023/06/21 00:55:05;;;;;;;10.80;5.32;;;;;;;;;;5069120;28;20388;-78
2023/06/21 00:57:31;;;;;;;10.10;5.07;;;;;;;;;;5079424;28;20036;-78
2023/06/21 00:59:56;;;;;;;12.95;5.65;;;;;;;;;;5078868;28;20020;-78
2023/06/21 01:02:22;;;;;;;8.45;5.57;;;;;;;;;;5066317;28;20033;-78
2023/06/21 01:04:49;;;;;;;13.15;5.82;;;;;;;;;;5080883;28;20096;-79
2023/06/21 01:07:29;;;;;;;9.50;5.43;;;;;;;;;;5081178;28;20479;-78
2023/06/21 01:10:01;;;;;;;9.07;5.35;;;;;;;;;;5081452;28;20096;-79
2023/06/21 01:12:38;;;;;;;7.90;6.10;;;;;;;;;;5063781;28;20083;-78
2023/06/21 01:15:14;;;;;;;11.82;5.68;;;;;;;;;;5057158;28;20024;-78
2023/06/21 01:17:43;;;;;;;11.23;5.63;;;;;;;;;;5067083;28;20142;-78
2023/06/21 01:20:13;;;;;;;13.60;5.00;;;;;;;;;;5058079;28;20036;-77
2023/06/21 01:22:51;;;;;;;12.00;5.25;;;;;;;;;;5070196;28;20036;-78
2023/06/21 01:25:39;;;;;;;14.70;5.80;;;;;;;;;;5078669;28;20036;-79
2023/06/21 01:28:16;;;;;;;9.40;5.13;;;;;;;;;;5057956;28;20037;-80
2023/06/21 01:30:45;;;;;;;7.55;5.20;;;;;;;;;;5059030;28;20037;-80
2023/06/21 01:33:11;;;;;;;15.98;4.57;;;;;;;;;;5060374;28;20032;-79
2023/06/21 01:35:36;;;;;;;16.05;5.10;;;;;;;;;;5062065;28;20032;-78
2023/06/21 01:38:02;;;;;;;19.23;5.80;;;;;;;;;;5065899;28;20068;-79
2023/06/21 01:40:27;;;;;;;10.30;5.13;;;;;;;;;;5068302;28;20086;-79
2023/06/21 01:42:53;;;;;;;10.82;4.90;;;;;;;;;;5062783;28;20036;-79
2023/06/21 01:45:23;;;;;;;8.70;4.88;;;;;;;;;;5069557;28;20039;-78
2023/06/21 01:47:49;;;;;;;9.15;5.10;;;;;;;;;;5065874;28;20025;-78
2023/06/21 01:50:15;;;;;;;5.03;4.53;;;;;;;;;;5071947;28;20040;-78
2023/06/21 01:52:42;;;;;;;8.70;4.88;;;;;;;;;;5067592;28;20037;-77
2023/06/21 01:55:09;;;;;;;8.20;5.50;;;;;;;;;;5070451;28;20032;-78
2023/06/21 01:57:35;;;;;;;8.55;5.10;;;;;;;;;;5097632;22;20033;-81
2023/06/21 02:00:17;;;;;;;11.30;5.47;;;;;;;;;;5053750;28;20035;-81
2023/06/21 02:02:48;;;;;;;12.20;5.72;;;;;;;;;;5055344;28;20468;-82
2023/06/21 02:05:16;;;;;;;12.32;5.35;;;;;;;;;;5056974;28;20429;-83
2023/06/21 02:07:44;;;;;;;12.60;5.68;;;;;;;;;;5057195;28;20091;-81
2023/06/21 02:10:11;;;;;;;11.82;5.20;;;;;;;;;;5056855;28;20033;-81
2023/06/21 02:12:36;;;;;;;9.98;5.50;;;;;;;;;;5056234;28;20502;-82
2023/06/21 02:15:03;;;;;;;15.18;6.15;;;;;;;;;;5057089;28;20029;-83
2023/06/21 02:17:29;;;;;;;6.30;5.60;;;;;;;;;;5057085;28;20051;-82
2023/06/21 02:19:55;;;;;;;6.93;5.07;;;;;;;;;;5056643;28;20055;-80
2023/06/21 02:22:21;;;;;;;8.93;5.30;;;;;;;;;;5055977;28;20116;-80
2023/06/21 02:24:46;;;;;;;11.18;5.63;;;;;;;;;;5055972;28;20037;-82
2023/06/21 02:27:11;;;;;;;11.70;5.95;;;;;;;;;;5056258;28;20040;-84
2023/06/21 02:29:36;;;;;;;9.60;5.63;;;;;;;;;;5056119;28;20028;-81
2023/06/21 02:32:02;;;;;;;19.13;6.30;;;;;;;;;;5056241;28;20502;-79
2023/06/21 02:34:28;;;;;;;12.73;6.57;;;;;;;;;;5056047;28;20041;-83
2023/06/21 02:36:53;;;;;;;9.23;5.65;;;;;;;;;;5056242;28;20033;-82
2023/06/21 02:39:22;;;;;;;11.65;5.85;;;;;;;;;;5056571;28;20438;-80
2023/06/21 02:41:48;;;;;;;9.15;6.05;;;;;;;;;;5057144;28;20032;-83
2023/06/21 02:44:13;;;;;;;12.95;6.35;;;;;;;;;;5055167;28;20136;-85
2023/06/21 02:46:39;;;;;;;8.80;5.38;;;;;;;;;;5056804;28;20067;-83
2023/06/21 02:49:04;;;;;;;9.55;5.90;;;;;;;;;;5056099;28;20063;-84
2023/06/21 02:51:29;;;;;;;9.95;6.05;;;;;;;;;;5057047;28;20029;-83
2023/06/21 02:53:55;;;;;;;16.85;6.07;;;;;;;;;;5057451;28;20021;-83
2023/06/21 02:56:20;;;;;;;13.68;6.57;;;;;;;;;;5052300;28;20040;-83
2023/06/21 02:58:45;;;;;;;11.13;5.90;;;;;;;;;;5056906;28;20112;-84
2023/06/21 03:01:13;;;;;;;9.95;6.32;;;;;;;;;;5055934;28;20036;-84
2023/06/21 03:03:40;;;;;;;12.23;5.43;;;;;;;;;;5055120;28;20033;-83
2023/06/21 03:06:06;;;;;;;12.35;6.35;;;;;;;;;;5056633;28;20187;-82
2023/06/21 03:08:31;;;;;;;9.77;6.10;;;;;;;;;;5056791;28;20052;-83
2023/06/21 03:10:57;;;;;;;9.80;5.50;;;;;;;;;;5056771;28;20037;-85
2023/06/21 03:13:22;;;;;;;10.95;4.97;;;;;;;;;;5056314;28;20044;-84
2023/06/21 03:15:47;;;;;;;14.27;5.80;;;;;;;;;;5056773;28;20223;-83
2023/06/21 03:18:14;;;;;;;8.15;5.75;;;;;;;;;;5048233;28;20149;-83
2023/06/21 03:20:40;;;;;;;12.00;5.32;;;;;;;;;;5057879;28;20386;-84
2023/06/21 03:23:05;;;;;;;8.98;5.28;;;;;;;;;;5055705;28;20116;-83
2023/06/21 03:25:30;;;;;;;17.02;5.95;;;;;;;;;;5055702;28;20062;-84
2023/06/21 03:27:59;;;;;;;14.85;5.47;;;;;;;;;;5057521;28;20091;-84
2023/06/21 03:30:25;;;;;;;21.73;5.50;;;;;;;;;;5056889;28;20037;-83
2023/06/21 03:32:50;;;;;;;13.95;6.32;;;;;;;;;;5057280;28;20104;-84
2023/06/21 03:35:18;;;;;;;7.45;5.00;;;;;;;;;;5056660;28;20052;-83
2023/06/21 03:37:46;;;;;;;21.08;6.25;;;;;;;;;;5056893;28;20041;-83
2023/06/21 03:40:13;;;;;;;10.60;5.85;;;;;;;;;;5056893;28;20078;-85
2023/06/21 03:42:39;;;;;;;16.85;6.72;;;;;;;;;;5060688;28;20052;-84
2023/06/21 03:45:05;;;;;;;19.23;5.75;;;;;;;;;;5057653;28;20033;-85
2023/06/21 03:47:30;;;;;;;12.38;6.43;;;;;;;;;;5065244;28;20060;-83
2023/06/21 03:49:57;;;;;;;13.90;5.13;;;;;;;;;;5057024;28;20033;-84
2023/06/21 03:52:25;;;;;;;13.63;5.13;;;;;;;;;;5044828;28;20028;-82
2023/06/21 03:54:52;;;;;;;14.18;5.22;;;;;;;;;;5054246;28;20108;-81
2023/06/21 03:57:18;;;;;;;13.38;5.93;;;;;;;;;;5053632;28;20029;-82
2023/06/21 03:59:43;;;;;;;16.63;5.30;;;;;;;;;;5055430;28;20040;-83
2023/06/21 04:02:09;;;;;;;9.90;4.72;;;;;;;;;;5055148;28;20032;-80
2023/06/21 04:04:38;;;;;;;16.45;5.30;;;;;;;;;;5053378;28;20033;-81
2023/06/21 04:07:04;;;;;;;11.48;5.20;;;;;;;;;;5054069;28;20041;-82
2023/06/21 04:09:29;;;;;;;10.07;4.63;;;;;;;;;;5054733;28;20029;-81
2023/06/21 04:11:55;;;;;;;13.85;5.25;;;;;;;;;;5056300;28;20045;-83
2023/06/21 04:14:20;;;;;;;14.93;5.38;;;;;;;;;;5054767;28;20464;-82
2023/06/21 04:16:45;;;;;;;12.95;4.70;;;;;;;;;;5053741;28;20040;-82
2023/06/21 04:19:10;;;;;;;9.85;5.30;;;;;;;;;;5054767;28;20036;-82
2023/06/21 04:21:36;;;;;;;9.70;5.15;;;;;;;;;;5056091;28;20107;-80
2023/06/21 04:24:01;;;;;;;10.15;5.07;;;;;;;;;;5055452;28;20056;-81
2023/06/21 04:26:28;;;;;;;12.85;5.55;;;;;;;;;;5057777;28;20386;-82
2023/06/21 04:28:54;;;;;;;16.25;5.07;;;;;;;;;;5057584;28;20075;-82
2023/06/21 04:31:19;;;;;;;11.48;5.50;;;;;;;;;;5056899;28;20036;-81
2023/06/21 04:33:44;;;;;;;13.07;5.43;;;;;;;;;;5058565;28;20028;-80
2023/06/21 04:36:10;;;;;;;11.05;5.30;;;;;;;;;;5058418;28;20029;-81
2023/06/21 04:38:35;;;;;;;14.50;5.25;;;;;;;;;;5057889;28;20058;-81
2023/06/21 04:41:00;;;;;;;18.88;5.28;;;;;;;;;;5058569;28;20036;-81
2023/06/21 04:43:27;;;;;;;15.40;5.18;;;;;;;;;;5058467;28;20029;-81
2023/06/21 04:45:52;;;;;;;13.60;5.07;;;;;;;;;;5057923;28;20037;-81
2023/06/21 04:48:18;;;;;;;7.85;4.70;;;;;;;;;;5057178;28;20075;-81
2023/06/21 04:50:45;;;;;;;10.95;4.95;;;;;;;;;;5057026;28;20029;-82
2023/06/21 04:53:14;;;;;;;13.48;4.93;;;;;;;;;;5056732;28;20033;-80
2023/06/21 04:55:42;;;;;;;11.48;4.45;;;;;;;;;;5057599;28;20071;-81
2023/06/21 04:58:09;;;;;;;12.77;4.35;;;;;;;;;;5055773;28;20086;-81
2023/06/21 05:00:36;;;;;;;11.70;4.47;;;;;;;;;;5057113;28;20033;-80
2023/06/21 05:03:02;;;;;;;8.68;4.30;;;;;;;;;;5057244;28;20607;-82
2023/06/21 05:05:27;;;;;;;11.32;4.20;;;;;;;;;;5057399;28;20087;-81
2023/06/21 05:07:52;;;;;;;11.38;5.15;;;;;;;;;;5056705;28;20120;-80
2023/06/21 05:10:18;;;;;;;10.93;4.43;;;;;;;;;;5056653;28;20035;-82
2023/06/21 05:12:43;;;;;;;13.90;4.53;;;;;;;;;;5051713;28;20090;-81
2023/06/21 05:15:09;;;;;;;14.23;4.45;;;;;;;;;;5060016;28;20031;-82
2023/06/21 05:17:34;;;;;;;25.08;5.80;;;;;;;;;;5059421;28;20041;-82
2023/06/21 05:20:00;;;;;;;10.75;4.18;;;;;;;;;;5060204;28;20036;-82
2023/06/21 05:22:26;;;;;;;16.20;4.60;;;;;;;;;;5058531;28;20036;-82
2023/06/21 05:24:51;;;;;;;15.88;4.78;;;;;;;;;;5058575;28;20069;-81
2023/06/21 05:27:16;;;;;;;11.82;4.45;;;;;;;;;;5050459;28;20448;-80
2023/06/21 05:29:41;;;;;;;7.57;4.00;;;;;;;;;;5059743;28;20017;-81
2023/06/21 05:32:07;;;;;;;12.88;4.80;;;;;;;;;;5060457;28;20106;-84
2023/06/21 05:34:32;;;;;;;16.40;4.65;;;;;;;;;;5055290;28;20096;-83
2023/06/21 05:36:58;;;;;;;8.88;4.82;;;;;;;;;;5058941;28;20066;-83
2023/06/21 05:39:23;;;;;;;9.68;4.28;;;;;;;;;;5057474;28;20743;-83
2023/06/21 05:41:48;;;;;;;11.05;5.78;;;;;;;;;;5059382;28;20056;-83
2023/06/21 05:44:14;;;;;;;13.98;4.93;;;;;;;;;;5059770;28;20029;-83
2023/06/21 05:46:39;;;;;;;13.02;4.95;;;;;;;;;;5059269;28;20487;-84
2023/06/21 05:49:04;;;;;;;12.75;4.78;;;;;;;;;;5057703;28;20043;-83
2023/06/21 05:51:30;;;;;;;11.15;4.97;;;;;;;;;;5058225;28;20137;-81
2023/06/21 05:53:56;;;;;;;12.45;4.72;;;;;;;;;;5058876;28;20029;-84
2023/06/21 05:56:24;;;;;;;28.02;5.82;;;;;;;;;;5049528;28;20533;-82
2023/06/21 05:58:52;;;;;;;14.98;5.70;;;;;;;;;;5056073;28;20037;-81
2023/06/21 06:01:18;;;;;;;15.05;4.90;;;;;;;;;;5057381;28;20033;-82
2023/06/21 06:03:43;;;;;;;17.05;5.82;;;;;;;;;;5057801;28;20043;-80
2023/06/21 06:06:09;;;;;;;14.77;5.45;;;;;;;;;;5057704;28;20029;-82
2023/06/21 06:08:37;;;;;;;11.73;4.57;;;;;;;;;;5056406;28;20031;-83
2023/06/21 06:11:02;;;;;;;11.98;4.93;;;;;;;;;;5054069;28;20044;-80
2023/06/21 06:13:28;;;;;;;9.07;4.68;;;;;;;;;;5055984;28;20033;-80
2023/06/21 06:15:53;;;;;;;8.15;4.97;;;;;;;;;;5054677;28;20044;-82
2023/06/21 06:18:19;;;;;;;11.32;4.40;;;;;;;;;;5053859;28;20090;-83
2023/06/21 06:20:45;;;;;;;7.97;4.90;;;;;;;;;;5055200;28;20029;-81
2023/06/21 06:23:11;;;;;;;11.65;5.18;;;;;;;;;;5052693;28;20040;-83
2023/06/21 06:25:36;;;;;;;18.73;4.80;;;;;;;;;;5055171;28;20048;-83
2023/06/21 06:28:01;;;;;;;11.07;5.00;;;;;;;;;;5055398;28;20033;-83
2023/06/21 06:30:27;;;;;;;11.90;4.90;;;;;;;;;;5056771;28;20039;-80
2023/06/21 06:32:52;;;;;;;10.43;4.85;;;;;;;;;;5058799;28;20088;-79
2023/06/21 06:35:17;;;;;;;11.88;5.25;;;;;;;;;;5059899;28;20035;-78
2023/06/21 06:37:42;;;;;;;10.77;4.88;;;;;;;;;;5056782;28;20044;-80
2023/06/21 06:40:08;;;;;;;14.32;6.22;;;;;;;;;;5058163;28;20556;-78
2023/06/21 06:42:34;;;;;;;13.70;4.55;;;;;;;;;;5058348;28;20033;-78
2023/06/21 06:44:59;;;;;;;12.75;4.72;;;;;;;;;;5058609;28;20025;-80
2023/06/21 06:47:28;;;;;;;11.80;5.13;;;;;;;;;;5054274;28;20323;-79
2023/06/21 06:49:53;;;;;;;12.23;4.85;;;;;;;;;;5058291;28;20272;-79
2023/06/21 06:52:18;;;;;;;8.38;4.47;;;;;;;;;;5060065;28;20092;-79
2023/06/21 06:54:43;;;;;;;13.05;5.40;;;;;;;;;;5058738;28;20120;-79
2023/06/21 06:57:09;;;;;;;12.48;5.43;;;;;;;;;;5059981;28;20522;-79
2023/06/21 06:59:34;;;;;;;12.20;5.35;;;;;;;;;;5060483;28;20029;-79
2023/06/21 07:02:00;;;;;;;13.70;5.07;;;;;;;;;;5060278;28;20052;-79
2023/06/21 07:04:28;;;;;;;12.13;5.43;;;;;;;;;;5060192;28;20036;-79
2023/06/21 07:06:53;;;;;;;16.58;5.45;;;;;;;;;;5059005;28;20033;-79
2023/06/21 07:09:19;;;;;;;9.95;5.30;;;;;;;;;;5069753;28;20042;-79
2023/06/21 07:11:44;;;;;;;15.20;6.05;;;;;;;;;;5069054;28;20052;-79
2023/06/21 07:14:10;;;;;;;13.07;5.95;;;;;;;;;;5066101;28;20108;-79
2023/06/21 07:16:39;;;;;;;11.90;5.43;;;;;;;;;;5060330;28;20033;-78
2023/06/21 07:19:05;;;;;;;20.88;6.15;;;;;;;;;;5060536;28;20520;-78
2023/06/21 07:21:30;;;;;;;19.33;6.15;;;;;;;;;;5059648;28;20116;-80
2023/06/21 07:23:55;;;;;;;21.88;6.22;;;;;;;;;;5056471;28;20021;-80
2023/06/21 07:26:20;;;;;;;20.80;5.85;;;;;;;;;;5059572;28;20316;-79
2023/06/21 07:28:46;;;;;;;14.18;6.15;;;;;;;;;;5058584;28;20075;-78
2023/06/21 07:31:11;;;;;;;17.50;6.03;;;;;;;;;;5058164;28;20528;-81
2023/06/21 07:33:37;;;;;;;17.52;5.43;;;;;;;;;;5056650;28;20025;-81
2023/06/21 07:36:03;;;;;;;13.25;5.75;;;;;;;;;;5058256;28;20457;-80
2023/06/21 07:38:28;;;;;;;12.93;6.13;;;;;;;;;;5058542;28;20101;-81
2023/06/21 07:40:54;;;;;;;12.35;5.75;;;;;;;;;;5058238;28;20036;-81
2023/06/21 07:43:20;;;;;;;14.02;5.28;;;;;;;;;;5057031;28;20026;-81
2023/06/21 07:45:45;;;;;;;12.30;5.43;;;;;;;;;;5050305;28;20507;-81
2023/06/21 07:48:10;;;;;;;13.18;5.63;;;;;;;;;;5058848;28;20032;-83
2023/06/21 07:50:36;;;;;;;15.35;5.47;;;;;;;;;;5058815;28;20593;-82
2023/06/21 07:53:01;;;;;;;15.00;5.43;;;;;;;;;;5057838;28;20143;-82
2023/06/21 07:55:26;;;;;;;16.90;5.35;;;;;;;;;;5058755;28;20064;-81
2023/06/21 08:00:17;;;;;;;22.02;5.30;;;;;;;;;;5056131;22;20089;-79
2023/06/21 08:02:46;;;;;;;13.43;5.45;;;;;;;;;;5039969;28;20451;-79
2023/06/21 08:05:13;;;;;;;17.38;4.85;;;;;;;;;;5039812;28;20041;-79
2023/06/21 08:07:38;;;;;;;18.27;5.47;;;;;;;;;;5038408;28;20041;-79
2023/06/21 08:10:04;;;;;;;12.65;5.00;;;;;;;;;;5020255;28;20037;-79
2023/06/21 08:12:29;;;;;;;12.38;5.00;;;;;;;;;;5020839;28;20029;-79
2023/06/21 08:14:54;;;;;;;8.73;4.07;;;;;;;;;;5018908;28;20060;-79
2023/06/21 08:17:20;;;;;;;9.32;4.90;;;;;;;;;;5018201;28;20524;-79
2023/06/21 08:19:45;;;;;;;12.85;4.80;;;;;;;;;;5017997;28;20042;-79
2023/06/21 08:22:10;;;;;;;9.95;4.95;;;;;;;;;;5018369;28;20048;-80
2023/06/21 08:24:35;;;;;;;9.75;4.72;;;;;;;;;;5018013;28;20045;-79
2023/06/21 08:27:01;;;;;;;18.10;5.07;;;;;;;;;;5019233;28;20018;-79
2023/06/21 08:29:26;;;;;;;8.48;4.65;;;;;;;;;;5018571;28;20105;-79
2023/06/21 08:31:51;;;;;;;13.45;4.80;;;;;;;;;;5018388;28;20029;-79
2023/06/21 08:34:17;;;;;;;23.02;5.38;;;;;;;;;;5023167;28;20030;-79
2023/06/21 08:36:42;;;;;;;13.82;4.75;;;;;;;;;;5019181;28;20034;-79
2023/06/21 08:39:08;;;;;;;13.60;5.20;;;;;;;;;;5019625;28;20091;-79
2023/06/21 08:41:36;;;;;;;12.57;5.30;;;;;;;;;;5019445;28;20516;-79
2023/06/21 08:44:01;;;;;;;13.25;5.18;;;;;;;;;;5018894;28;20026;-79
2023/06/21 08:46:27;;;;;;;12.82;5.18;;;;;;;;;;5018642;28;20060;-79
2023/06/21 08:48:57;;;;;;;10.30;4.57;;;;;;;;;;5017478;28;20030;-79
2023/06/21 08:51:24;;;;;;;8.40;4.97;;;;;;;;;;5018499;28;20045;-79
2023/06/21 08:54:03;;;;;;;8.57;4.75;;;;;;;;;;5018493;28;20077;-79
2023/06/21 08:56:33;;;;;;;12.10;4.60;;;;;;;;;;5022789;28;20046;-78
2023/06/21 08:59:06;;;;;;;14.05;5.07;;;;;;;;;;5016593;28;20078;-79
2023/06/21 09:01:55;;;;;;;12.48;5.57;;;;;;;;;;5017294;28;20045;-79
2023/06/21 09:04:25;;;;;;;14.20;5.10;;;;;;;;;;5018857;28;20034;-79
2023/06/21 09:06:51;;;;;;;12.60;4.85;;;;;;;;;;5017183;28;20038;-79
2023/06/21 09:09:18;;;;;;;9.73;4.90;;;;;;;;;;5017658;28;20029;-78
2023/06/21 09:11:46;;;;;;;10.10;4.78;;;;;;;;;;5016654;28;20061;-79
2023/06/21 09:14:12;;;;;;;14.02;4.38;;;;;;;;;;5017173;28;20022;-79
2023/06/21 09:16:38;;;;;;;9.60;5.03;;;;;;;;;;5018801;28;20171;-78
2023/06/21 09:19:04;;;;;;;12.93;5.05;;;;;;;;;;5018154;28;20034;-78
2023/06/21 09:21:30;;;;;;;13.10;5.38;;;;;;;;;;5018059;28;20128;-79
2023/06/21 09:23:56;;;;;;;8.95;5.07;;;;;;;;;;5019316;28;20022;-79
2023/06/21 09:26:22;;;;;;;15.90;5.43;;;;;;;;;;5018701;28;20083;-79
2023/06/21 09:28:47;;;;;;;10.38;5.03;;;;;;;;;;5016922;28;20138;-78
2023/06/21 09:31:12;;;;;;;13.90;4.75;;;;;;;;;;5016741;28;20141;-79
2023/06/21 09:33:38;;;;;;;14.57;5.07;;;;;;;;;;5016274;28;20048;-79
2023/06/21 09:36:04;;;;;;;18.77;5.43;;;;;;;;;;5018707;28;20115;-79
2023/06/21 09:38:33;;;;;;;12.68;4.85;;;;;;;;;;5018342;28;20022;-79
2023/06/21 09:41:03;;;;;;;10.18;5.20;;;;;;;;;;5018346;28;20034;-79
2023/06/21 09:43:28;;;;;;;13.00;5.30;;;;;;;;;;5023553;28;20055;-79
2023/06/21 09:46:05;;;;;;;10.25;5.45;;;;;;;;;;5016704;28;20116;-79
2023/06/21 09:48:35;;;;;;;15.75;4.95;;;;;;;;;;5018019;28;20030;-79
2023/06/21 09:51:08;;;;;;;9.50;4.57;;;;;;;;;;5018717;28;20033;-79
2023/06/21 09:53:34;;;;;;;;;;;;;;;;;;5004993;28;20125;-78
2023/06/21 09:56:00;;;;;;;11.40;4.93;;;;;;;;;;5016827;28;19945;-79
2023/06/21 09:58:26;;;;;;;10.00;5.00;;;;;;;;;;5017683;28;20064;-79
2023/06/21 10:00:52;;;;;;;13.00;5.78;;;;;;;;;;5016129;28;20364;-79
2023/06/21 10:03:22;;;;;;;18.83;5.72;;;;;;;;;;5023888;28;20483;-78
2023/06/21 10:05:55;;;;;;;16.88;5.88;;;;;;;;;;5017436;28;20021;-79
2023/06/21 10:08:29;;;;;;;11.95;5.57;;;;;;;;;;5018248;28;20030;-79
2023/06/21 10:10:55;;;;;;;15.98;5.57;;;;;;;;;;5016481;28;20034;-79
2023/06/21 10:13:28;;;;;;;13.43;5.68;;;;;;;;;;5023557;28;20025;-79
2023/06/21 10:15:55;;;;;;;17.15;5.93;;;;;;;;;;5008182;28;20030;-78
2023/06/21 10:18:21;;;;;;;17.23;5.05;;;;;;;;;;5017487;28;20021;-79
2023/06/21 10:20:56;;;;;;;16.23;4.93;;;;;;;;;;5016442;28;20118;-79
2023/06/21 10:23:26;;;;;;;28.08;4.78;;;;;;;;;;5019204;28;20034;-79
2023/06/21 10:25:53;;;;;;;19.83;3.63;;;;;;;;;;5014615;28;20500;-78
2023/06/21 10:28:21;;;;;;;17.48;4.95;;;;;;;;;;5013298;28;20442;-78
2023/06/21 10:30:49;;;;;;;15.38;3.42;;;;;;;;;;5015401;28;20038;-79
2023/06/21 10:33:16;;;;;;;16.58;3.92;;;;;;;;;;5022588;28;20495;-79
2023/06/21 10:35:45;;;;;;;20.63;3.40;;;;;;;;;;5017504;28;20026;-78
2023/06/21 10:38:21;;;;;;;20.33;3.05;;;;;;;;;;5025739;28;20034;-79
2023/06/21 10:40:48;;;;;;;13.85;3.13;;;;;;;;;;5016376;28;20034;-79
2023/06/21 10:43:14;;;;;;;37.45;4.63;;;;;;;;;;5019595;28;20117;-79
2023/06/21 10:45:41;;;;;;;14.02;3.13;;;;;;;;;;5017011;28;20049;-79
2023/06/21 10:48:08;;;;;;;13.15;3.08;;;;;;;;;;5016464;28;20041;-79
2023/06/21 10:50:33;;;;;;;13.63;3.63;;;;;;;;;;5018508;28;20022;-79
2023/06/21 10:53:01;;;;;;;19.95;3.38;;;;;;;;;;5017950;28;20025;-79
2023/06/21 10:55:27;;;;;;;17.42;2.75;;;;;;;;;;5019616;28;20038;-79
2023/06/21 10:57:53;;;;;;;16.80;3.75;;;;;;;;;;5014518;28;20032;-79
2023/06/21 11:00:21;;;;;;;16.55;3.95;;;;;;;;;;5015764;28;20029;-79
2023/06/21 11:02:47;;;;;;;28.77;3.88;;;;;;;;;;5017404;28;20069;-79
2023/06/21 11:05:18;;;;;;;14.65;3.63;;;;;;;;;;5020303;28;20136;-79
2023/06/21 11:07:58;;;;;;;17.15;3.85;;;;;;;;;;5014160;28;20030;-79
2023/06/21 11:10:46;;;;;;;10.77;3.22;;;;;;;;;;5014810;28;20080;-79
2023/06/21 11:13:12;;;;;;;15.90;3.40;;;;;;;;;;5020503;28;20026;-79
2023/06/21 11:15:39;;;;;;;15.20;3.47;;;;;;;;;;5018396;28;20030;-79
2023/06/21 11:18:06;;;;;;;11.07;3.20;;;;;;;;;;5014633;28;20017;-79
2023/06/21 11:20:44;;;;;;;20.70;3.70;;;;;;;;;;5016225;28;20072;-79
2023/06/21 11:23:09;;;;;;;19.63;3.35;;;;;;;;;;5020990;28;20022;-79
2023/06/21 11:25:38;;;;;;;15.60;3.45;;;;;;;;;;5019286;28;20084;-79
2023/06/21 11:28:19;;;;;;;12.13;3.40;;;;;;;;;;5016243;28;20057;-79
2023/06/21 11:31:07;;;;;;;18.48;3.97;;;;;;;;;;5015408;28;20045;-79
2023/06/21 11:33:55;;;;;;;14.10;3.40;;;;;;;;;;5022431;28;20092;-79
2023/06/21 11:36:28;;;;;;;18.38;3.78;;;;;;;;;;5019564;28;20021;-79
2023/06/21 11:39:10;;;;;;;16.90;3.85;;;;;;;;;;5019201;28;20097;-79
2023/06/21 11:41:44;;;;;;;14.82;3.33;;;;;;;;;;5019855;28;20053;-78
2023/06/21 11:44:25;;;;;;;15.82;4.03;;;;;;;;;;5025217;28;20041;-79
2023/06/21 11:47:02;;;;;;;9.95;3.33;;;;;;;;;;5034999;28;20038;-79
2023/06/21 11:49:33;;;;;;;20.35;3.45;;;;;;;;;;5018796;28;20092;-79
2023/06/21 11:52:05;;;;;;;10.82;3.50;;;;;;;;;;5020154;28;20037;-79
2023/06/21 11:54:34;;;;;;;13.27;3.80;;;;;;;;;;5027111;28;20026;-79
2023/06/21 11:57:03;;;;;;;10.30;3.75;;;;;;;;;;5020514;28;20113;-79
2023/06/21 11:59:31;;;;;;;12.82;4.32;;;;;;;;;;5019248;28;20038;-79
2023/06/21 12:02:15;;;;;;;16.70;4.07;;;;;;;;;;5018023;28;20033;-79
2023/06/21 12:04:41;;;;;;;;;;;;;;;;;;5025902;28;20060;-79
2023/06/21 12:07:06;;;;;;;8.82;4.20;;;;;;;;;;5019852;28;19917;-79
2023/06/21 12:09:32;;;;;;;11.70;3.40;;;;;;;;;;5020076;28;20045;-79
2023/06/21 12:11:58;;;;;;;11.98;4.03;;;;;;;;;;5020044;28;20149;-79
2023/06/21 12:14:23;;;;;;;12.65;4.18;;;;;;;;;;5026598;28;20456;-79
2023/06/21 12:16:51;;;;;;;12.35;3.70;;;;;;;;;;5019356;28;20120;-79
2023/06/21 12:19:21;;;;;;;8.73;4.10;;;;;;;;;;5019617;28;20112;-79
2023/06/21 12:21:46;;;;;;;14.15;4.45;;;;;;;;;;5018034;28;20095;-79
2023/06/21 12:24:11;;;;;;;12.38;4.25;;;;;;;;;;5026404;28;20056;-79
2023/06/21 12:26:50;;;;;;;9.43;3.97;;;;;;;;;;5019954;28;20392;-79
2023/06/21 12:29:15;;;;;;;18.65;4.40;;;;;;;;;;5018003;28;20029;-79
2023/06/21 12:31:45;;;;;;;11.63;4.07;;;;;;;;;;5026662;28;20433;-79
2023/06/21 12:34:15;;;;;;;14.63;4.40;;;;;;;;;;5025839;28;20038;-79
2023/06/21 12:36:42;;;;;;;12.73;4.40;;;;;;;;;;5017656;28;20448;-79
2023/06/21 12:39:08;;;;;;;11.05;4.10;;;;;;;;;;5027279;28;20492;-79
2023/06/21 12:41:34;;;;;;;12.55;4.90;;;;;;;;;;5019305;28;20064;-79
2023/06/21 12:44:01;;;;;;;12.35;4.03;;;;;;;;;;5024888;28;20034;-80
2023/06/21 12:46:28;;;;;;;9.00;4.30;;;;;;;;;;5019278;28;20097;-79
2023/06/21 12:48:55;;;;;;;10.45;4.00;;;;;;;;;;5018822;28;20104;-79
2023/06/21 12:51:24;;;;;;;10.32;4.30;;;;;;;;;;5019013;28;20026;-79
2023/06/21 12:53:56;;;;;;;12.25;4.45;;;;;;;;;;5026389;28;20396;-79
2023/06/21 12:56:22;;;;;;;11.80;4.65;;;;;;;;;;5017713;28;20026;-79
2023/06/21 12:58:47;;;;;;;11.95;4.63;;;;;;;;;;5018641;28;20052;-79
2023/06/21 13:01:12;;;;;;;11.25;4.25;;;;;;;;;;5018090;28;20401;-79
2023/06/21 13:03:38;;;;;;;19.02;4.45;;;;;;;;;;5023257;28;20033;-79
2023/06/21 13:06:04;;;;;;;17.33;4.68;;;;;;;;;;5017391;28;20540;-79
2023/06/21 13:08:30;;;;;;;14.52;4.57;;;;;;;;;;5017478;28;20112;-79
2023/06/21 13:10:57;;;;;;;13.25;4.75;;;;;;;;;;5017055;28;20133;-79
2023/06/21 13:13:24;;;;;;;7.10;4.28;;;;;;;;;;5022608;28;20029;-79
2023/06/21 13:15:49;;;;;;;13.82;4.15;;;;;;;;;;5019111;28;20038;-79
2023/06/21 13:18:18;;;;;;;11.73;4.15;;;;;;;;;;5017319;28;20022;-79
2023/06/21 13:20:43;;;;;;;11.10;4.38;;;;;;;;;;5018867;28;20018;-79
2023/06/21 13:23:09;;;;;;;12.38;4.78;;;;;;;;;;5020309;28;20041;-79
2023/06/21 13:25:37;;;;;;;13.55;4.60;;;;;;;;;;5021170;28;20395;-79
2023/06/21 13:28:02;;;;;;;13.80;4.55;;;;;;;;;;5016736;28;20036;-79
2023/06/21 13:30:27;;;;;;;12.70;4.40;;;;;;;;;;5018217;28;20500;-79
2023/06/21 13:32:53;;;;;;;9.15;4.25;;;;;;;;;;5017445;28;20053;-79
2023/06/21 13:35:18;;;;;;;9.63;3.97;;;;;;;;;;5022891;28;20041;-79
2023/06/21 13:37:43;;;;;;;11.77;4.63;;;;;;;;;;5017201;28;20029;-79
2023/06/21 13:40:09;;;;;;;14.23;4.57;;;;;;;;;;5016716;28;20034;-78
2023/06/21 13:42:35;;;;;;;12.13;4.85;;;;;;;;;;5018149;28;20081;-79
2023/06/21 13:45:02;;;;;;;23.15;4.68;;;;;;;;;;5022549;28;20025;-79
2023/06/21 13:47:28;;;;;;;11.70;4.38;;;;;;;;;;5018291;28;20038;-79
2023/06/21 13:49:53;;;;;;;10.25;4.30;;;;;;;;;;5018236;28;20496;-79
2023/06/21 13:52:19;;;;;;;11.00;4.65;;;;;;;;;;5016482;28;20080;-79
2023/06/21 13:54:45;;;;;;;11.73;4.53;;;;;;;;;;5023987;28;20039;-78
2023/06/21 13:57:17;;;;;;;9.30;4.68;;;;;;;;;;5014835;28;20022;-79
2023/06/21 13:59:46;;;;;;;14.32;4.75;;;;;;;;;;5078648;22;20033;-74
2023/06/21 14:02:12;;;;;;;15.45;4.88;;;;;;;;;;5032465;28;20038;-74
2023/06/21 14:04:38;;;;;;;13.38;4.75;;;;;;;;;;5032555;28;20042;-74
2023/06/21 14:07:04;;;;;;;18.77;5.63;;;;;;;;;;5032596;28;20121;-75
2023/06/21 14:09:29;;;;;;;21.08;5.80;;;;;;;;;;5022268;28;20050;-75
2023/06/21 14:11:56;;;;;;;14.43;5.18;;;;;;;;;;5013626;28;20029;-75
2023/06/21 14:14:21;;;;;;;12.30;4.63;;;;;;;;;;5013140;28;20113;-75
2023/06/21 14:16:46;;;;;;;12.50;5.88;;;;;;;;;;5013007;28;20172;-75
2023/06/21 14:19:12;;;;;;;15.90;4.97;;;;;;;;;;5013042;28;20053;-75
2023/06/21 14:21:37;;;;;;;14.32;4.85;;;;;;;;;;5013108;28;20032;-75
2023/06/21 14:24:02;;;;;;;12.23;4.90;;;;;;;;;;5015146;28;20495;-77
2023/06/21 14:26:28;;;;;;;9.68;4.47;;;;;;;;;;5033657;28;20033;-77
2023/06/21 14:28:53;;;;;;;14.88;5.38;;;;;;;;;;5032552;28;20025;-77
2023/06/21 14:31:18;;;;;;;15.75;5.05;;;;;;;;;;5031815;28;20061;-77
2023/06/21 14:33:43;;;;;;;10.98;5.13;;;;;;;;;;5025947;28;20499;-77
2023/06/21 14:36:09;;;;;;;17.13;5.38;;;;;;;;;;5031403;28;20037;-77